Portada
METAR-TAF:

METAR-TAF

Aeroports :

Sedalia, Missouri, Estats Units d'Amèrica

latitud: 38-42-44N, longitud: 093-10-28W, altitud: 277 m

Observació

L'informe es va fer fa 58 minuts, a les 20:53 UTC
Vent 9 kt del Sud-Oest amb ràfegues de 18 kt
Temperatura 29°C
Humitat 52%
Pressió 1010 hPa
Visibilitat: 16.1 km
Cel clar

METAR: KDMO 242053Z AUTO 22009G18KT 10SM CLR 29/18 A2983 RMK AO2 SLP095 T02940178 58017

Hora: 16:51 (21:51 UTC)


TAF: manca

Observacions i pronòstics meteorològics de més de 4000 aeroports (METAR i TAF).

Les estacions disponibles són els punts grocs i vermells al mapa.

Posi el ratolí al punt desitjat per veure el nom de l'estació.

Feu clic per veure les observacions i els pronòstics meteorològics.

Per canviar el mapa: feu clic els botons verds amb una creu de color negre per apropar; al botó verd amb un guió per allunyar la imatge; o en les fletxes verdes per a mapes adjacents.


METAR-TAF: